Terminal Aerodrome Forecast
Issued by NWS

Home | Current Version | Previous Version | Text Only | Print | Product List | Glossary Off
Versions: 1 2 3 4 5 6 7 8 9 10 11 12 13 14 15 16 17

000
FTUS43 KMPX 260800 AAA
TAFRNH
TAF AMD
KRNH 260834Z 2609/2706 20004KT 6SM BR FEW005 BKN025
     FM261100 00000KT 3SM BR SCT015
      TEMPO 2611/2612 1SM BR VV006
     FM261400 27004KT P6SM SCT020 SCT120
     FM261700 25008KT P6SM FEW035 SCT120
     FM270000 22009KT P6SM SCT120 PROB30 2702/2705 -SHRA BKN050=

USA.gov is the U.S. government's official web portal to all federal, state and local government web resources and services.